sensor_id;sensor_type;location;lat;lon;timestamp;temperature;humidity
37300;DHT22;23184;51.902;12.836;2023-02-26T00:01:32;0.10;99.90
37300;DHT22;23184;51.902;12.836;2023-02-26T00:04:00;0.10;99.90
37300;DHT22;23184;51.902;12.836;2023-02-26T00:06:27;0.10;99.90
37300;DHT22;23184;51.902;12.836;2023-02-26T00:08:54;0.10;99.90
37300;DHT22;23184;51.902;12.836;2023-02-26T00:11:21;0.10;99.90
37300;DHT22;23184;51.902;12.836;2023-02-26T00:13:47;0.10;99.90
37300;DHT22;23184;51.902;12.836;2023-02-26T00:16:33;0.20;99.90
37300;DHT22;23184;51.902;12.836;2023-02-26T00:19:01;0.10;99.90
37300;DHT22;23184;51.902;12.836;2023-02-26T00:21:28;0.10;99.90
37300;DHT22;23184;51.902;12.836;2023-02-26T00:23:54;0.10;99.90
37300;DHT22;23184;51.902;12.836;2023-02-26T00:26:22;0.10;99.90
37300;DHT22;23184;51.902;12.836;2023-02-26T00:28:49;0.10;99.90
37300;DHT22;23184;51.902;12.836;2023-02-26T00:31:15;0.10;99.90
37300;DHT22;23184;51.902;12.836;2023-02-26T00:33:42;0.10;99.90
37300;DHT22;23184;51.902;12.836;2023-02-26T00:41:29;0.20;99.90
37300;DHT22;23184;51.902;12.836;2023-02-26T00:43:54;0.10;99.90
37300;DHT22;23184;51.902;12.836;2023-02-26T00:46:35;0.10;99.90
37300;DHT22;23184;51.902;12.836;2023-02-26T00:51:49;0.00;99.90
37300;DHT22;23184;51.902;12.836;2023-02-26T00:54:22;0.00;99.90
37300;DHT22;23184;51.902;12.836;2023-02-26T00:56:49;0.00;99.90
37300;DHT22;23184;51.902;12.836;2023-02-26T00:59:15;0.00;99.90
37300;DHT22;23184;51.902;12.836;2023-02-26T01:01:41;0.00;99.90
37300;DHT22;23184;51.902;12.836;2023-02-26T01:04:07;0.00;99.90
37300;DHT22;23184;51.902;12.836;2023-02-26T01:06:34;0.00;99.90
37300;DHT22;23184;51.902;12.836;2023-02-26T01:09:22;0.00;99.90
37300;DHT22;23184;51.902;12.836;2023-02-26T01:11:50;-0.10;99.90
37300;DHT22;23184;51.902;12.836;2023-02-26T01:14:16;0.00;99.90
37300;DHT22;23184;51.902;12.836;2023-02-26T01:17:05;0.00;99.90
37300;DHT22;23184;51.902;12.836;2023-02-26T01:19:40;0.00;99.90
37300;DHT22;23184;51.902;12.836;2023-02-26T01:22:51;0.10;99.90
37300;DHT22;23184;51.902;12.836;2023-02-26T01:25:22;0.00;99.90
37300;DHT22;23184;51.902;12.836;2023-02-26T01:27:49;0.00;99.90
37300;DHT22;23184;51.902;12.836;2023-02-26T01:30:15;0.00;99.90
37300;DHT22;23184;51.902;12.836;2023-02-26T01:35:44;0.00;99.90
37300;DHT22;23184;51.902;12.836;2023-02-26T01:38:14;0.00;99.90
37300;DHT22;23184;51.902;12.836;2023-02-26T01:41:06;0.00;99.90
37300;DHT22;23184;51.902;12.836;2023-02-26T01:46:25;-0.10;99.90
37300;DHT22;23184;51.902;12.836;2023-02-26T01:48:55;-0.10;99.90
37300;DHT22;23184;51.902;12.836;2023-02-26T01:51:45;-0.10;99.90
37300;DHT22;23184;51.902;12.836;2023-02-26T01:54:12;-0.10;99.90
37300;DHT22;23184;51.902;12.836;2023-02-26T01:56:38;-0.10;99.90
37300;DHT22;23184;51.902;12.836;2023-02-26T01:59:05;-0.20;99.90
37300;DHT22;23184;51.902;12.836;2023-02-26T02:01:34;-0.30;99.90
37300;DHT22;23184;51.902;12.836;2023-02-26T02:04:00;-0.30;99.90
37300;DHT22;23184;51.902;12.836;2023-02-26T02:06:28;-0.30;99.90
37300;DHT22;23184;51.902;12.836;2023-02-26T02:08:55;-0.20;99.90
37300;DHT22;23184;51.902;12.836;2023-02-26T02:11:20;-0.20;99.90
37300;DHT22;23184;51.902;12.836;2023-02-26T02:13:54;-0.20;99.90
37300;DHT22;23184;51.902;12.836;2023-02-26T02:16:45;-0.10;99.90
37300;DHT22;23184;51.902;12.836;2023-02-26T02:19:35;0.00;99.90
37300;DHT22;23184;51.902;12.836;2023-02-26T02:31:01;0.00;99.90
37300;DHT22;23184;51.902;12.836;2023-02-26T02:33:35;0.00;99.90
37300;DHT22;23184;51.902;12.836;2023-02-26T02:36:06;0.00;99.90
37300;DHT22;23184;51.902;12.836;2023-02-26T02:38:45;0.00;99.90
37300;DHT22;23184;51.902;12.836;2023-02-26T02:41:19;0.00;99.90
37300;DHT22;23184;51.902;12.836;2023-02-26T02:43:47;0.00;99.90
37300;DHT22;23184;51.902;12.836;2023-02-26T02:46:26;0.00;99.90
37300;DHT22;23184;51.902;12.836;2023-02-26T02:49:00;0.10;99.90
37300;DHT22;23184;51.902;12.836;2023-02-26T02:51:44;0.10;99.90
37300;DHT22;23184;51.902;12.836;2023-02-26T02:54:18;0.10;99.90
37300;DHT22;23184;51.902;12.836;2023-02-26T02:56:52;0.10;99.90
37300;DHT22;23184;51.902;12.836;2023-02-26T02:59:46;0.10;99.90
37300;DHT22;23184;51.902;12.836;2023-02-26T03:02:21;0.10;99.90
37300;DHT22;23184;51.902;12.836;2023-02-26T03:04:49;0.10;99.90
37300;DHT22;23184;51.902;12.836;2023-02-26T03:07:14;0.10;99.90
37300;DHT22;23184;51.902;12.836;2023-02-26T03:09:41;0.00;99.90
37300;DHT22;23184;51.902;12.836;2023-02-26T03:12:06;0.00;99.90
37300;DHT22;23184;51.902;12.836;2023-02-26T03:14:32;0.00;99.90
37300;DHT22;23184;51.902;12.836;2023-02-26T03:17:30;0.10;99.90
37300;DHT22;23184;51.902;12.836;2023-02-26T03:20:16;0.00;99.90
37300;DHT22;23184;51.902;12.836;2023-02-26T03:25:34;-0.10;99.90
37300;DHT22;23184;51.902;12.836;2023-02-26T03:28:28;-0.10;99.90
37300;DHT22;23184;51.902;12.836;2023-02-26T03:31:14;-0.20;99.90
37300;DHT22;23184;51.902;12.836;2023-02-26T03:36:42;-0.20;99.90
37300;DHT22;23184;51.902;12.836;2023-02-26T03:39:28;-0.20;99.90
37300;DHT22;23184;51.902;12.836;2023-02-26T03:42:26;-0.20;99.90
37300;DHT22;23184;51.902;12.836;2023-02-26T03:45:00;-0.20;99.90
37300;DHT22;23184;51.902;12.836;2023-02-26T03:47:26;-0.10;99.90
37300;DHT22;23184;51.902;12.836;2023-02-26T03:50:03;-0.10;99.90
37300;DHT22;23184;51.902;12.836;2023-02-26T03:52:33;-0.10;99.90
37300;DHT22;23184;51.902;12.836;2023-02-26T03:55:09;0.00;99.90
37300;DHT22;23184;51.902;12.836;2023-02-26T03:57:37;-0.10;99.90
37300;DHT22;23184;51.902;12.836;2023-02-26T04:00:04;0.00;99.90
37300;DHT22;23184;51.902;12.836;2023-02-26T04:02:42;0.00;99.90
37300;DHT22;23184;51.902;12.836;2023-02-26T04:05:17;0.00;99.90
37300;DHT22;23184;51.902;12.836;2023-02-26T04:07:46;0.00;99.90
37300;DHT22;23184;51.902;12.836;2023-02-26T04:10:18;0.10;99.90
37300;DHT22;23184;51.902;12.836;2023-02-26T04:12:46;0.10;99.90
37300;DHT22;23184;51.902;12.836;2023-02-26T04:15:12;0.10;99.90
37300;DHT22;23184;51.902;12.836;2023-02-26T04:17:37;0.10;99.90
37300;DHT22;23184;51.902;12.836;2023-02-26T04:20:03;0.10;99.90
37300;DHT22;23184;51.902;12.836;2023-02-26T04:22:33;0.10;99.90
37300;DHT22;23184;51.902;12.836;2023-02-26T04:24:58;0.10;99.90
37300;DHT22;23184;51.902;12.836;2023-02-26T04:27:24;0.10;99.90
37300;DHT22;23184;51.902;12.836;2023-02-26T04:29:49;0.10;99.90
37300;DHT22;23184;51.902;12.836;2023-02-26T04:32:15;0.10;99.90
37300;DHT22;23184;51.902;12.836;2023-02-26T04:34:40;0.10;99.90
37300;DHT22;23184;51.902;12.836;2023-02-26T04:37:06;0.10;99.90
37300;DHT22;23184;51.902;12.836;2023-02-26T04:39:31;0.10;99.90
37300;DHT22;23184;51.902;12.836;2023-02-26T04:41:57;0.10;99.90
37300;DHT22;23184;51.902;12.836;2023-02-26T04:44:22;0.10;99.90
37300;DHT22;23184;51.902;12.836;2023-02-26T04:46:48;0.10;99.90
37300;DHT22;23184;51.902;12.836;2023-02-26T04:49:13;0.20;99.90
37300;DHT22;23184;51.902;12.836;2023-02-26T04:51:39;0.20;99.90
37300;DHT22;23184;51.902;12.836;2023-02-26T04:54:04;0.20;99.90
37300;DHT22;23184;51.902;12.836;2023-02-26T04:56:30;0.20;99.90
37300;DHT22;23184;51.902;12.836;2023-02-26T04:58:56;0.20;99.90
37300;DHT22;23184;51.902;12.836;2023-02-26T05:01:22;0.20;99.90
37300;DHT22;23184;51.902;12.836;2023-02-26T05:03:47;0.20;99.90
37300;DHT22;23184;51.902;12.836;2023-02-26T05:06:13;0.20;99.90
37300;DHT22;23184;51.902;12.836;2023-02-26T05:08:38;0.20;99.90
37300;DHT22;23184;51.902;12.836;2023-02-26T05:11:10;0.20;99.90
37300;DHT22;23184;51.902;12.836;2023-02-26T05:13:36;0.30;99.90
37300;DHT22;23184;51.902;12.836;2023-02-26T05:16:01;0.30;99.90
37300;DHT22;23184;51.902;12.836;2023-02-26T05:18:27;0.30;99.90
37300;DHT22;23184;51.902;12.836;2023-02-26T05:20:54;0.30;99.90
37300;DHT22;23184;51.902;12.836;2023-02-26T05:23:20;0.30;99.90
37300;DHT22;23184;51.902;12.836;2023-02-26T05:25:46;0.30;99.90
37300;DHT22;23184;51.902;12.836;2023-02-26T05:28:11;0.30;99.90
37300;DHT22;23184;51.902;12.836;2023-02-26T05:30:38;0.30;99.90
37300;DHT22;23184;51.902;12.836;2023-02-26T05:33:04;0.20;99.90
37300;DHT22;23184;51.902;12.836;2023-02-26T05:35:29;0.30;99.90
37300;DHT22;23184;51.902;12.836;2023-02-26T05:37:54;0.30;99.90
37300;DHT22;23184;51.902;12.836;2023-02-26T05:40:20;0.30;99.90
37300;DHT22;23184;51.902;12.836;2023-02-26T05:42:45;0.30;99.90
37300;DHT22;23184;51.902;12.836;2023-02-26T05:45:11;0.30;99.90
37300;DHT22;23184;51.902;12.836;2023-02-26T05:47:37;0.30;99.90
37300;DHT22;23184;51.902;12.836;2023-02-26T05:50:04;0.30;99.90
37300;DHT22;23184;51.902;12.836;2023-02-26T05:52:29;0.30;99.90
37300;DHT22;23184;51.902;12.836;2023-02-26T05:54:55;0.30;99.90
37300;DHT22;23184;51.902;12.836;2023-02-26T05:57:21;0.40;99.90
37300;DHT22;23184;51.902;12.836;2023-02-26T05:59:46;0.40;99.90
37300;DHT22;23184;51.902;12.836;2023-02-26T06:02:12;0.30;99.90
37300;DHT22;23184;51.902;12.836;2023-02-26T06:04:37;0.40;99.90
37300;DHT22;23184;51.902;12.836;2023-02-26T06:07:03;0.40;99.90
37300;DHT22;23184;51.902;12.836;2023-02-26T06:09:28;0.40;99.90
37300;DHT22;23184;51.902;12.836;2023-02-26T06:11:54;0.40;99.90
37300;DHT22;23184;51.902;12.836;2023-02-26T06:14:19;0.40;99.90
37300;DHT22;23184;51.902;12.836;2023-02-26T06:16:45;0.40;99.90
37300;DHT22;23184;51.902;12.836;2023-02-26T06:19:10;0.40;99.90
37300;DHT22;23184;51.902;12.836;2023-02-26T06:21:36;0.40;99.90
37300;DHT22;23184;51.902;12.836;2023-02-26T06:24:01;0.40;99.90
37300;DHT22;23184;51.902;12.836;2023-02-26T06:26:27;0.50;99.90
37300;DHT22;23184;51.902;12.836;2023-02-26T06:28:52;0.60;99.90
37300;DHT22;23184;51.902;12.836;2023-02-26T06:31:18;0.70;99.90
37300;DHT22;23184;51.902;12.836;2023-02-26T06:33:43;0.70;99.90
37300;DHT22;23184;51.902;12.836;2023-02-26T06:36:09;0.60;99.90
37300;DHT22;23184;51.902;12.836;2023-02-26T06:38:34;0.60;99.90
37300;DHT22;23184;51.902;12.836;2023-02-26T06:41:00;0.60;99.90
37300;DHT22;23184;51.902;12.836;2023-02-26T06:43:26;0.70;99.90
37300;DHT22;23184;51.902;12.836;2023-02-26T06:45:51;0.70;99.90
37300;DHT22;23184;51.902;12.836;2023-02-26T06:48:17;0.80;99.90
37300;DHT22;23184;51.902;12.836;2023-02-26T06:50:43;0.80;99.90
37300;DHT22;23184;51.902;12.836;2023-02-26T06:53:08;0.90;99.90
37300;DHT22;23184;51.902;12.836;2023-02-26T06:55:34;0.90;99.90
37300;DHT22;23184;51.902;12.836;2023-02-26T06:57:59;0.90;99.90
37300;DHT22;23184;51.902;12.836;2023-02-26T07:00:25;0.90;99.90
37300;DHT22;23184;51.902;12.836;2023-02-26T07:02:51;1.00;99.90
37300;DHT22;23184;51.902;12.836;2023-02-26T07:05:17;1.00;99.90
37300;DHT22;23184;51.902;12.836;2023-02-26T07:07:42;1.00;99.90
37300;DHT22;23184;51.902;12.836;2023-02-26T07:10:10;1.00;99.90
37300;DHT22;23184;51.902;12.836;2023-02-26T07:12:36;1.00;99.90
37300;DHT22;23184;51.902;12.836;2023-02-26T07:15:06;1.00;99.90
37300;DHT22;23184;51.902;12.836;2023-02-26T07:17:32;1.00;99.90
37300;DHT22;23184;51.902;12.836;2023-02-26T07:19:57;1.00;99.90
37300;DHT22;23184;51.902;12.836;2023-02-26T07:22:23;1.00;99.90
37300;DHT22;23184;51.902;12.836;2023-02-26T07:24:49;1.10;99.90
37300;DHT22;23184;51.902;12.836;2023-02-26T07:27:15;1.10;99.90
37300;DHT22;23184;51.902;12.836;2023-02-26T07:29:41;1.10;99.90
37300;DHT22;23184;51.902;12.836;2023-02-26T07:32:06;1.10;99.90
37300;DHT22;23184;51.902;12.836;2023-02-26T07:34:32;1.10;99.90
37300;DHT22;23184;51.902;12.836;2023-02-26T07:36:57;1.10;99.90
37300;DHT22;23184;51.902;12.836;2023-02-26T07:39:26;1.20;99.90
37300;DHT22;23184;51.902;12.836;2023-02-26T07:41:52;1.30;99.90
37300;DHT22;23184;51.902;12.836;2023-02-26T07:44:17;1.30;99.90
37300;DHT22;23184;51.902;12.836;2023-02-26T07:46:43;1.30;99.90
37300;DHT22;23184;51.902;12.836;2023-02-26T07:49:08;1.40;99.90
37300;DHT22;23184;51.902;12.836;2023-02-26T07:51:34;1.50;99.90
37300;DHT22;23184;51.902;12.836;2023-02-26T07:54:00;1.60;99.90
37300;DHT22;23184;51.902;12.836;2023-02-26T07:56:25;1.60;99.90
37300;DHT22;23184;51.902;12.836;2023-02-26T07:58:51;1.70;99.90
37300;DHT22;23184;51.902;12.836;2023-02-26T08:01:16;1.70;99.90
37300;DHT22;23184;51.902;12.836;2023-02-26T08:03:42;1.80;99.90
37300;DHT22;23184;51.902;12.836;2023-02-26T08:06:07;1.90;99.90
37300;DHT22;23184;51.902;12.836;2023-02-26T08:08:33;1.90;99.90
37300;DHT22;23184;51.902;12.836;2023-02-26T08:10:59;2.00;99.90
37300;DHT22;23184;51.902;12.836;2023-02-26T08:13:26;2.10;99.90
37300;DHT22;23184;51.902;12.836;2023-02-26T08:15:51;2.10;99.90
37300;DHT22;23184;51.902;12.836;2023-02-26T08:18:17;2.20;99.90
37300;DHT22;23184;51.902;12.836;2023-02-26T08:20:42;2.30;99.90
37300;DHT22;23184;51.902;12.836;2023-02-26T08:23:08;2.40;99.90
37300;DHT22;23184;51.902;12.836;2023-02-26T08:25:34;2.50;99.90
37300;DHT22;23184;51.902;12.836;2023-02-26T08:28:00;2.70;99.90
37300;DHT22;23184;51.902;12.836;2023-02-26T08:30:27;2.80;99.90
37300;DHT22;23184;51.902;12.836;2023-02-26T08:32:53;2.80;99.90
37300;DHT22;23184;51.902;12.836;2023-02-26T08:35:18;2.90;99.90
37300;DHT22;23184;51.902;12.836;2023-02-26T08:37:44;2.80;99.90
37300;DHT22;23184;51.902;12.836;2023-02-26T08:40:10;2.80;99.90
37300;DHT22;23184;51.902;12.836;2023-02-26T08:42:36;2.80;99.90
37300;DHT22;23184;51.902;12.836;2023-02-26T08:45:02;2.80;99.90
37300;DHT22;23184;51.902;12.836;2023-02-26T08:47:27;2.90;99.90
37300;DHT22;23184;51.902;12.836;2023-02-26T08:49:53;3.00;99.90
37300;DHT22;23184;51.902;12.836;2023-02-26T08:52:19;3.20;99.90
37300;DHT22;23184;51.902;12.836;2023-02-26T08:54:45;3.80;99.90
37300;DHT22;23184;51.902;12.836;2023-02-26T08:57:11;4.50;99.90
37300;DHT22;23184;51.902;12.836;2023-02-26T08:59:36;5.20;99.90
37300;DHT22;23184;51.902;12.836;2023-02-26T09:02:01;5.90;99.90
37300;DHT22;23184;51.902;12.836;2023-02-26T09:04:27;6.40;99.90
37300;DHT22;23184;51.902;12.836;2023-02-26T09:06:53;7.50;99.90
37300;DHT22;23184;51.902;12.836;2023-02-26T09:09:18;8.40;99.90
37300;DHT22;23184;51.902;12.836;2023-02-26T09:11:44;9.50;99.90
37300;DHT22;23184;51.902;12.836;2023-02-26T09:14:10;10.20;99.90
37300;DHT22;23184;51.902;12.836;2023-02-26T09:16:35;10.70;99.10
37300;DHT22;23184;51.902;12.836;2023-02-26T09:19:02;11.30;95.20
37300;DHT22;23184;51.902;12.836;2023-02-26T09:21:29;11.50;92.30
37300;DHT22;23184;51.902;12.836;2023-02-26T09:23:54;11.40;90.50
37300;DHT22;23184;51.902;12.836;2023-02-26T09:26:20;11.50;90.70
37300;DHT22;23184;51.902;12.836;2023-02-26T09:28:45;11.80;89.40
37300;DHT22;23184;51.902;12.836;2023-02-26T09:31:11;11.90;87.70
37300;DHT22;23184;51.902;12.836;2023-02-26T09:33:36;12.30;88.30
37300;DHT22;23184;51.902;12.836;2023-02-26T09:36:03;12.10;83.40
37300;DHT22;23184;51.902;12.836;2023-02-26T09:38:28;12.20;85.40
37300;DHT22;23184;51.902;12.836;2023-02-26T09:40:57;12.50;82.50
37300;DHT22;23184;51.902;12.836;2023-02-26T09:52:01;12.60;79.30
37300;DHT22;23184;51.902;12.836;2023-02-26T09:54:32;12.60;80.00
37300;DHT22;23184;51.902;12.836;2023-02-26T09:57:02;12.80;79.10
37300;DHT22;23184;51.902;12.836;2023-02-26T09:59:31;12.50;78.90
37300;DHT22;23184;51.902;12.836;2023-02-26T10:02:16;13.00;77.80
37300;DHT22;23184;51.902;12.836;2023-02-26T10:04:54;13.00;76.40
37300;DHT22;23184;51.902;12.836;2023-02-26T10:13:46;13.40;74.40
37300;DHT22;23184;51.902;12.836;2023-02-26T10:16:17;13.10;74.20
37300;DHT22;23184;51.902;12.836;2023-02-26T10:18:58;13.20;74.50
37300;DHT22;23184;51.902;12.836;2023-02-26T10:21:41;13.80;76.00
37300;DHT22;23184;51.902;12.836;2023-02-26T10:24:25;14.60;71.70
37300;DHT22;23184;51.902;12.836;2023-02-26T10:27:04;15.00;70.10
37300;DHT22;23184;51.902;12.836;2023-02-26T10:29:39;15.10;68.00
37300;DHT22;23184;51.902;12.836;2023-02-26T10:32:17;14.70;66.20
37300;DHT22;23184;51.902;12.836;2023-02-26T10:34:52;14.30;66.80
37300;DHT22;23184;51.902;12.836;2023-02-26T10:37:23;13.90;67.90
37300;DHT22;23184;51.902;12.836;2023-02-26T10:40:14;13.40;71.40
37300;DHT22;23184;51.902;12.836;2023-02-26T10:42:45;12.90;71.10
37300;DHT22;23184;51.902;12.836;2023-02-26T10:45:27;11.80;71.20
37300;DHT22;23184;51.902;12.836;2023-02-26T10:48:00;11.40;73.40
37300;DHT22;23184;51.902;12.836;2023-02-26T10:50:30;10.50;75.40
37300;DHT22;23184;51.902;12.836;2023-02-26T10:52:56;9.70;78.50
37300;DHT22;23184;51.902;12.836;2023-02-26T10:55:40;8.90;79.70
37300;DHT22;23184;51.902;12.836;2023-02-26T10:58:20;8.30;81.70
37300;DHT22;23184;51.902;12.836;2023-02-26T11:00:48;7.90;85.50
37300;DHT22;23184;51.902;12.836;2023-02-26T11:03:29;7.80;88.80
37300;DHT22;23184;51.902;12.836;2023-02-26T11:05:55;8.00;89.90
37300;DHT22;23184;51.902;12.836;2023-02-26T11:08:31;7.80;87.20
37300;DHT22;23184;51.902;12.836;2023-02-26T11:10:59;7.40;87.90
37300;DHT22;23184;51.902;12.836;2023-02-26T11:13:27;7.10;90.50
37300;DHT22;23184;51.902;12.836;2023-02-26T11:15:55;6.80;91.20
37300;DHT22;23184;51.902;12.836;2023-02-26T11:18:27;6.70;91.20
37300;DHT22;23184;51.902;12.836;2023-02-26T11:20:57;6.60;92.60
37300;DHT22;23184;51.902;12.836;2023-02-26T11:23:26;6.40;94.10
37300;DHT22;23184;51.902;12.836;2023-02-26T11:26:37;6.30;94.10
37300;DHT22;23184;51.902;12.836;2023-02-26T11:28:44;6.20;94.60
37300;DHT22;23184;51.902;12.836;2023-02-26T11:31:12;6.20;96.10
37300;DHT22;23184;51.902;12.836;2023-02-26T11:33:49;6.40;97.90
37300;DHT22;23184;51.902;12.836;2023-02-26T11:36:20;6.20;96.60
37300;DHT22;23184;51.902;12.836;2023-02-26T11:38:53;5.90;94.90
37300;DHT22;23184;51.902;12.836;2023-02-26T11:41:19;5.50;93.70
37300;DHT22;23184;51.902;12.836;2023-02-26T11:43:54;5.20;95.00
37300;DHT22;23184;51.902;12.836;2023-02-26T11:46:23;5.20;97.50
37300;DHT22;23184;51.902;12.836;2023-02-26T11:48:49;5.40;97.80
37300;DHT22;23184;51.902;12.836;2023-02-26T11:51:24;5.60;96.80
37300;DHT22;23184;51.902;12.836;2023-02-26T11:53:57;5.50;94.70
37300;DHT22;23184;51.902;12.836;2023-02-26T11:56:37;5.30;95.60
37300;DHT22;23184;51.902;12.836;2023-02-26T11:59:07;5.10;96.80
37300;DHT22;23184;51.902;12.836;2023-02-26T12:01:40;5.00;99.50
37300;DHT22;23184;51.902;12.836;2023-02-26T12:04:11;5.20;99.90
37300;DHT22;23184;51.902;12.836;2023-02-26T12:06:37;5.40;99.90
37300;DHT22;23184;51.902;12.836;2023-02-26T12:09:08;5.50;99.90
37300;DHT22;23184;51.902;12.836;2023-02-26T12:12:05;5.40;99.90
37300;DHT22;23184;51.902;12.836;2023-02-26T12:17:30;5.80;99.90
37300;DHT22;23184;51.902;12.836;2023-02-26T12:20:07;6.10;99.90
37300;DHT22;23184;51.902;12.836;2023-02-26T12:37:02;5.30;99.90
37300;DHT22;23184;51.902;12.836;2023-02-26T12:39:44;5.20;99.20
37300;DHT22;23184;51.902;12.836;2023-02-26T12:45:16;6.10;99.90
37300;DHT22;23184;51.902;12.836;2023-02-26T12:48:02;6.30;99.90
37300;DHT22;23184;51.902;12.836;2023-02-26T12:53:34;5.90;98.90
37300;DHT22;23184;51.902;12.836;2023-02-26T13:13:18;5.40;99.90
37300;DHT22;23184;51.902;12.836;2023-02-26T13:21:55;5.70;98.20
37300;DHT22;23184;51.902;12.836;2023-02-26T13:24:34;5.40;98.80
37300;DHT22;23184;51.902;12.836;2023-02-26T13:27:01;5.30;99.90
37300;DHT22;23184;51.902;12.836;2023-02-26T13:29:34;5.10;99.90
37300;DHT22;23184;51.902;12.836;2023-02-26T13:32:05;5.00;99.70
37300;DHT22;23184;51.902;12.836;2023-02-26T13:34:53;5.00;99.90
37300;DHT22;23184;51.902;12.836;2023-02-26T13:48:19;5.00;99.90
37300;DHT22;23184;51.902;12.836;2023-02-26T13:51:01;5.00;99.90
37300;DHT22;23184;51.902;12.836;2023-02-26T13:59:03;5.00;99.90
37300;DHT22;23184;51.902;12.836;2023-02-26T14:01:32;5.10;99.90
37300;DHT22;23184;51.902;12.836;2023-02-26T14:06:44;5.00;99.90
37300;DHT22;23184;51.902;12.836;2023-02-26T14:14:39;8.30;94.20
37300;DHT22;23184;51.902;12.836;2023-02-26T14:27:44;13.80;69.10
37300;DHT22;23184;51.902;12.836;2023-02-26T14:30:29;14.70;65.30
37300;DHT22;23184;51.902;12.836;2023-02-26T14:35:29;16.00;59.20
37300;DHT22;23184;51.902;12.836;2023-02-26T14:40:24;16.50;54.60
37300;DHT22;23184;51.902;12.836;2023-02-26T14:42:53;17.10;52.90
37300;DHT22;23184;51.902;12.836;2023-02-26T14:45:36;17.10;52.20
37300;DHT22;23184;51.902;12.836;2023-02-26T14:48:06;17.50;53.90
37300;DHT22;23184;51.902;12.836;2023-02-26T14:51:10;18.10;52.50
37300;DHT22;23184;51.902;12.836;2023-02-26T14:59:33;17.50;51.00
37300;DHT22;23184;51.902;12.836;2023-02-26T15:02:29;16.00;51.60
37300;DHT22;23184;51.902;12.836;2023-02-26T15:16:33;8.30;69.10
37300;DHT22;23184;51.902;12.836;2023-02-26T15:24:28;6.60;75.20
37300;DHT22;23184;51.902;12.836;2023-02-26T15:26:57;6.30;77.60
37300;DHT22;23184;51.902;12.836;2023-02-26T15:29:30;6.10;78.50
37300;DHT22;23184;51.902;12.836;2023-02-26T15:31:58;5.90;80.70
37300;DHT22;23184;51.902;12.836;2023-02-26T15:34:28;5.80;81.80
37300;DHT22;23184;51.902;12.836;2023-02-26T15:36:56;5.70;82.40
37300;DHT22;23184;51.902;12.836;2023-02-26T15:39:23;5.60;82.00
37300;DHT22;23184;51.902;12.836;2023-02-26T15:41:51;5.70;81.40
37300;DHT22;23184;51.902;12.836;2023-02-26T15:44:26;5.70;80.50
37300;DHT22;23184;51.902;12.836;2023-02-26T15:46:58;5.50;80.40
37300;DHT22;23184;51.902;12.836;2023-02-26T15:49:26;5.40;81.10
37300;DHT22;23184;51.902;12.836;2023-02-26T15:51:56;5.40;84.20
37300;DHT22;23184;51.902;12.836;2023-02-26T15:54:30;5.60;85.20
37300;DHT22;23184;51.902;12.836;2023-02-26T15:56:57;5.90;84.00
37300;DHT22;23184;51.902;12.836;2023-02-26T15:59:26;5.80;80.20
37300;DHT22;23184;51.902;12.836;2023-02-26T16:01:53;5.90;81.50
37300;DHT22;23184;51.902;12.836;2023-02-26T16:04:21;5.80;80.80
37300;DHT22;23184;51.902;12.836;2023-02-26T16:06:55;5.60;81.00
37300;DHT22;23184;51.902;12.836;2023-02-26T16:09:27;5.50;81.40
37300;DHT22;23184;51.902;12.836;2023-02-26T16:11:57;5.30;82.00
37300;DHT22;23184;51.902;12.836;2023-02-26T16:14:29;5.20;83.00
37300;DHT22;23184;51.902;12.836;2023-02-26T16:16:55;5.20;84.40
37300;DHT22;23184;51.902;12.836;2023-02-26T16:19:32;5.10;85.90
37300;DHT22;23184;51.902;12.836;2023-02-26T16:22:01;4.80;86.00
37300;DHT22;23184;51.902;12.836;2023-02-26T16:24:27;4.60;87.40
37300;DHT22;23184;51.902;12.836;2023-02-26T16:26:57;4.40;89.20
37300;DHT22;23184;51.902;12.836;2023-02-26T16:29:29;4.30;90.50
37300;DHT22;23184;51.902;12.836;2023-02-26T16:31:57;4.20;91.90
37300;DHT22;23184;51.902;12.836;2023-02-26T16:37:31;3.90;94.00
37300;DHT22;23184;51.902;12.836;2023-02-26T16:43:02;3.70;95.80
37300;DHT22;23184;51.902;12.836;2023-02-26T16:45:43;3.70;96.20
37300;DHT22;23184;51.902;12.836;2023-02-26T16:48:25;3.60;98.30
37300;DHT22;23184;51.902;12.836;2023-02-26T16:51:02;3.50;99.90
37300;DHT22;23184;51.902;12.836;2023-02-26T16:53:39;3.40;99.90
37300;DHT22;23184;51.902;12.836;2023-02-26T16:56:09;3.30;99.90
37300;DHT22;23184;51.902;12.836;2023-02-26T16:58:44;3.10;99.90
37300;DHT22;23184;51.902;12.836;2023-02-26T17:01:14;3.00;99.90
37300;DHT22;23184;51.902;12.836;2023-02-26T17:03:41;2.90;99.90
37300;DHT22;23184;51.902;12.836;2023-02-26T17:06:12;2.80;99.90
37300;DHT22;23184;51.902;12.836;2023-02-26T17:08:57;2.60;99.90
37300;DHT22;23184;51.902;12.836;2023-02-26T17:11:27;2.50;99.90
37300;DHT22;23184;51.902;12.836;2023-02-26T17:16:39;2.30;99.90
37300;DHT22;23184;51.902;12.836;2023-02-26T17:19:05;2.30;99.90
37300;DHT22;23184;51.902;12.836;2023-02-26T17:21:31;2.20;99.90
37300;DHT22;23184;51.902;12.836;2023-02-26T17:23:57;2.10;99.90
37300;DHT22;23184;51.902;12.836;2023-02-26T17:26:23;2.00;99.90
37300;DHT22;23184;51.902;12.836;2023-02-26T17:28:49;2.00;99.90
37300;DHT22;23184;51.902;12.836;2023-02-26T17:31:15;1.90;99.90
37300;DHT22;23184;51.902;12.836;2023-02-26T17:33:42;1.80;99.90
37300;DHT22;23184;51.902;12.836;2023-02-26T17:36:13;1.80;99.90
37300;DHT22;23184;51.902;12.836;2023-02-26T17:38:39;1.70;99.90
37300;DHT22;23184;51.902;12.836;2023-02-26T17:41:08;1.70;99.90
37300;DHT22;23184;51.902;12.836;2023-02-26T17:43:34;1.60;99.90
37300;DHT22;23184;51.902;12.836;2023-02-26T17:45:59;1.50;99.90
37300;DHT22;23184;51.902;12.836;2023-02-26T17:48:25;1.40;99.90
37300;DHT22;23184;51.902;12.836;2023-02-26T17:50:52;1.40;99.90
37300;DHT22;23184;51.902;12.836;2023-02-26T17:53:20;1.30;99.90
37300;DHT22;23184;51.902;12.836;2023-02-26T17:55:48;1.30;99.90
37300;DHT22;23184;51.902;12.836;2023-02-26T17:58:27;1.20;99.90
37300;DHT22;23184;51.902;12.836;2023-02-26T18:00:53;1.20;99.90
37300;DHT22;23184;51.902;12.836;2023-02-26T18:03:19;1.10;99.90
37300;DHT22;23184;51.902;12.836;2023-02-26T18:05:45;1.00;99.90
37300;DHT22;23184;51.902;12.836;2023-02-26T18:08:20;0.90;99.90
37300;DHT22;23184;51.902;12.836;2023-02-26T18:10:45;0.90;99.90
37300;DHT22;23184;51.902;12.836;2023-02-26T18:13:11;0.70;99.90
37300;DHT22;23184;51.902;12.836;2023-02-26T18:15:37;0.70;99.90
37300;DHT22;23184;51.902;12.836;2023-02-26T18:18:02;0.60;99.90
37300;DHT22;23184;51.902;12.836;2023-02-26T18:20:30;0.60;99.90
37300;DHT22;23184;51.902;12.836;2023-02-26T18:22:56;0.50;99.90
37300;DHT22;23184;51.902;12.836;2023-02-26T18:25:22;0.50;99.90
37300;DHT22;23184;51.902;12.836;2023-02-26T18:27:51;0.40;99.90